createdAt,value
2022-09-06T00:02:02.287Z,5.80
2022-09-06T00:04:29.706Z,5.45
2022-09-06T00:06:58.495Z,5.77
2022-09-06T00:09:25.879Z,5.57
2022-09-06T00:11:53.270Z,5.30
2022-09-06T00:14:20.672Z,5.55
2022-09-06T00:16:48.083Z,5.93
2022-09-06T00:19:15.483Z,6.40
2022-09-06T00:21:42.879Z,5.63
2022-09-06T00:24:11.613Z,5.55
2022-09-06T00:26:39.045Z,5.25
2022-09-06T00:29:06.504Z,5.63
2022-09-06T00:31:35.370Z,5.55
2022-09-06T00:34:02.968Z,5.38
2022-09-06T00:36:31.107Z,5.65
2022-09-06T00:38:58.632Z,5.75
2022-09-06T00:41:27.431Z,6.13
2022-09-06T00:43:55.507Z,6.05
2022-09-06T00:46:24.602Z,6.23
2022-09-06T00:48:53.957Z,6.20
2022-09-06T00:51:21.990Z,6.70
2022-09-06T00:53:50.191Z,6.43
2022-09-06T00:56:17.603Z,5.90
2022-09-06T00:58:46.903Z,6.22
2022-09-06T01:01:14.424Z,6.05
2022-09-06T01:03:42.110Z,5.65
2022-09-06T01:06:15.383Z,5.88
2022-09-06T01:08:50.187Z,6.35
2022-09-06T01:11:24.223Z,6.25
2022-09-06T01:13:56.963Z,6.50
2022-09-06T01:16:34.477Z,6.72
2022-09-06T01:19:17.224Z,6.68
2022-09-06T01:21:48.060Z,6.82
2022-09-06T01:24:39.719Z,6.50
2022-09-06T01:27:27.651Z,6.53
2022-09-06T01:30:01.028Z,6.77
2022-09-06T01:32:32.032Z,6.97
2022-09-06T01:35:03.405Z,6.65
2022-09-06T01:37:30.868Z,6.80
2022-09-06T01:39:58.395Z,6.65
2022-09-06T01:42:29.059Z,6.40
2022-09-06T01:44:59.229Z,6.20
2022-09-06T01:47:35.912Z,5.80
2022-09-06T01:50:26.366Z,5.85
2022-09-06T01:53:00.689Z,5.40
2022-09-06T01:55:31.499Z,4.93
2022-09-06T01:58:10.140Z,4.93
2022-09-06T02:00:44.033Z,4.75
2022-09-06T02:03:15.835Z,5.00
2022-09-06T02:05:47.544Z,4.70
2022-09-06T02:08:17.113Z,5.00
2022-09-06T02:10:46.412Z,4.72
2022-09-06T02:13:16.205Z,4.90
2022-09-06T02:15:45.501Z,5.15
2022-09-06T02:18:14.200Z,5.40
2022-09-06T02:20:43.160Z,5.20
2022-09-06T02:23:11.085Z,4.90
2022-09-06T02:25:40.060Z,5.23
2022-09-06T02:28:08.846Z,5.53
2022-09-06T02:30:39.674Z,5.70
2022-09-06T02:33:09.052Z,5.43
2022-09-06T02:35:43.107Z,5.65
2022-09-06T02:38:10.527Z,5.78
2022-09-06T02:40:38.269Z,6.22
2022-09-06T02:43:05.621Z,5.97
2022-09-06T02:45:33.053Z,6.13
2022-09-06T02:48:01.799Z,6.15
2022-09-06T02:50:29.282Z,6.43
2022-09-06T02:53:04.185Z,6.50
2022-09-06T02:55:31.621Z,6.35
2022-09-06T02:57:59.300Z,6.30
2022-09-06T03:00:27.190Z,6.65
2022-09-06T03:02:54.599Z,6.55
2022-09-06T03:05:23.457Z,6.35
2022-09-06T03:07:51.255Z,6.60
2022-09-06T03:10:18.842Z,6.47
2022-09-06T03:12:46.595Z,6.65
2022-09-06T03:15:14.996Z,6.55
2022-09-06T03:17:42.835Z,6.25
2022-09-06T03:20:11.110Z,6.80
2022-09-06T03:22:40.290Z,7.20
2022-09-06T03:25:08.071Z,7.10
2022-09-06T03:27:35.548Z,6.97
2022-09-06T03:30:02.990Z,6.65
2022-09-06T03:32:30.403Z,7.30
2022-09-06T03:34:58.087Z,7.20
2022-09-06T03:37:25.473Z,7.18
2022-09-06T03:39:54.344Z,6.45
2022-09-06T03:42:21.807Z,6.95
2022-09-06T03:44:49.247Z,7.00
2022-09-06T03:47:19.544Z,7.10
2022-09-06T03:49:47.434Z,7.00
2022-09-06T03:52:14.993Z,7.03
2022-09-06T03:54:42.571Z,7.32
2022-09-06T03:57:11.375Z,7.35
2022-09-06T03:59:38.829Z,7.35
2022-09-06T04:02:06.386Z,7.38
2022-09-06T04:04:33.841Z,7.10
2022-09-06T04:07:01.232Z,7.55
2022-09-06T04:09:28.820Z,7.30
2022-09-06T04:11:56.248Z,7.55
2022-09-06T04:14:25.018Z,7.50
2022-09-06T04:16:52.481Z,7.03
2022-09-06T04:19:19.943Z,7.68
2022-09-06T04:21:47.467Z,8.02
2022-09-06T04:24:14.815Z,8.00
2022-09-06T04:26:42.225Z,8.02
2022-09-06T04:29:09.600Z,8.50
2022-09-06T04:31:38.415Z,8.27
2022-09-06T04:34:05.907Z,8.70
2022-09-06T04:36:33.347Z,9.05
2022-09-06T04:39:00.732Z,8.98
2022-09-06T04:41:28.178Z,8.98
2022-09-06T04:43:55.566Z,9.18
2022-09-06T04:46:24.849Z,9.50
2022-09-06T04:48:54.596Z,9.63
2022-09-06T04:51:22.237Z,9.60
2022-09-06T04:53:49.699Z,9.82
2022-09-06T04:56:18.330Z,9.70
2022-09-06T04:58:46.349Z,9.60
2022-09-06T05:01:13.765Z,9.27
2022-09-06T05:03:41.209Z,9.35
2022-09-06T05:06:11.011Z,9.60
2022-09-06T05:08:39.035Z,9.48
2022-09-06T05:11:07.124Z,10.00
2022-09-06T05:13:34.995Z,9.27
2022-09-06T05:16:02.958Z,10.00
2022-09-06T05:18:30.630Z,10.15
2022-09-06T05:20:58.940Z,10.35
2022-09-06T05:23:27.967Z,10.00
2022-09-06T05:25:55.653Z,9.95
2022-09-06T05:28:23.361Z,9.85
2022-09-06T05:30:50.819Z,9.70
2022-09-06T05:33:20.909Z,8.80
2022-09-06T05:35:48.432Z,9.77
2022-09-06T05:38:15.844Z,9.77
2022-09-06T05:40:44.581Z,10.32
2022-09-06T05:43:11.976Z,9.88
2022-09-06T05:45:39.410Z,9.90
2022-09-06T05:48:06.867Z,9.88
2022-09-06T05:50:34.259Z,9.82
2022-09-06T05:53:02.131Z,9.90
2022-09-06T05:55:29.552Z,9.52
2022-09-06T05:57:58.269Z,10.30
2022-09-06T06:00:25.707Z,10.88
2022-09-06T06:02:53.258Z,11.00
2022-09-06T06:05:20.658Z,11.40
2022-09-06T06:07:48.096Z,10.95
2022-09-06T06:10:16.076Z,11.15
2022-09-06T06:12:43.540Z,12.13
2022-09-06T06:15:12.511Z,12.30
2022-09-06T06:17:39.881Z,11.87
2022-09-06T06:20:07.855Z,12.25
2022-09-06T06:22:35.235Z,11.65
2022-09-06T06:25:02.703Z,12.03
2022-09-06T06:27:30.244Z,12.25
2022-09-06T06:29:57.620Z,11.65
2022-09-06T06:32:26.472Z,11.27
2022-09-06T06:34:53.885Z,11.57
2022-09-06T06:37:21.237Z,10.40
2022-09-06T06:39:48.669Z,10.93
2022-09-06T06:42:16.378Z,10.20
2022-09-06T06:44:43.765Z,9.90
2022-09-06T06:47:11.172Z,9.15
2022-09-06T06:49:39.951Z,9.05
2022-09-06T06:52:07.440Z,8.20
2022-09-06T06:54:34.876Z,7.85
2022-09-06T06:57:02.264Z,7.33
2022-09-06T06:59:29.631Z,7.18
2022-09-06T07:01:57.148Z,7.05
2022-09-06T07:04:24.612Z,7.00
2022-09-06T07:12:28.956Z,5.70
2022-09-06T07:14:56.402Z,5.50
2022-09-06T07:17:23.999Z,5.00
2022-09-06T07:22:40.397Z,4.80
2022-09-06T07:25:08.445Z,4.30
2022-09-06T07:27:51.312Z,4.20
2022-09-06T07:30:19.774Z,3.97
2022-09-06T07:32:47.420Z,4.18
2022-09-06T07:35:14.865Z,4.57
2022-09-06T07:37:43.598Z,3.97
2022-09-06T07:40:11.608Z,4.60
2022-09-06T07:42:39.124Z,3.75
2022-09-06T07:45:06.987Z,3.88
2022-09-06T07:53:15.229Z,3.97
2022-09-06T07:55:43.152Z,3.40
2022-09-06T07:58:10.961Z,3.67
2022-09-06T08:00:40.987Z,3.45
2022-09-06T08:03:08.738Z,3.40
2022-09-06T08:11:13.477Z,3.83
2022-09-06T08:13:42.115Z,3.88
2022-09-06T08:16:10.692Z,3.70
2022-09-06T08:18:38.719Z,3.88
2022-09-06T08:21:11.548Z,3.55
2022-09-06T08:23:43.048Z,3.33
2022-09-06T08:26:10.440Z,3.90
2022-09-06T08:28:37.902Z,3.97
2022-09-06T08:31:09.442Z,4.10
2022-09-06T08:33:37.547Z,3.97
2022-09-06T08:36:05.104Z,4.60
2022-09-06T08:38:32.818Z,4.70
2022-09-06T08:41:09.211Z,4.30
2022-09-06T08:43:36.915Z,5.00
2022-09-06T08:46:04.943Z,5.10
2022-09-06T08:48:33.600Z,5.10
2022-09-06T08:51:08.550Z,4.80
2022-09-06T08:53:37.979Z,4.70
2022-09-06T08:56:08.980Z,5.18
2022-09-06T08:58:45.684Z,4.30
2022-09-06T09:01:14.804Z,4.40
2022-09-06T09:03:43.625Z,4.15
2022-09-06T09:06:11.458Z,4.10
2022-09-06T09:08:42.980Z,3.97
2022-09-06T09:11:12.427Z,4.22
2022-09-06T09:13:40.970Z,3.90
2022-09-06T09:16:09.879Z,3.72
2022-09-06T09:18:39.323Z,4.15
2022-09-06T09:21:06.975Z,4.28
2022-09-06T09:23:34.358Z,3.95
2022-09-06T09:26:04.343Z,4.15
2022-09-06T09:28:32.128Z,4.15
2022-09-06T09:30:59.717Z,4.40
2022-09-06T09:33:33.528Z,4.72
2022-09-06T09:36:02.089Z,4.37
2022-09-06T09:38:31.100Z,4.00
2022-09-06T09:40:59.396Z,4.60
2022-09-06T09:43:27.758Z,5.10
2022-09-06T09:46:08.808Z,4.30
2022-09-06T09:48:37.683Z,4.00
2022-09-06T09:51:26.321Z,3.53
2022-09-06T09:53:55.629Z,4.10
2022-09-06T09:56:28.387Z,4.15
2022-09-06T09:58:56.425Z,3.20
2022-09-06T10:01:25.741Z,3.03
2022-09-06T10:09:37.031Z,4.60
2022-09-06T10:12:04.869Z,4.10
2022-09-06T10:14:33.726Z,4.17
2022-09-06T10:17:01.264Z,3.60
2022-09-06T10:19:40.771Z,4.07
2022-09-06T10:22:27.205Z,4.03
2022-09-06T10:25:07.571Z,4.78
2022-09-06T10:27:36.118Z,4.20
2022-09-06T10:30:08.188Z,4.57
2022-09-06T10:32:41.429Z,4.75
2022-09-06T10:35:17.447Z,5.03
2022-09-06T10:38:06.076Z,5.15
2022-09-06T10:40:35.547Z,5.00
2022-09-06T10:43:04.209Z,5.00
2022-09-06T10:45:39.067Z,4.30
2022-09-06T10:48:14.465Z,4.90
2022-09-06T10:50:46.613Z,5.35
2022-09-06T10:53:16.634Z,5.83
2022-09-06T10:55:47.904Z,5.90
2022-09-06T10:58:19.781Z,6.27
2022-09-06T11:00:48.216Z,6.67
2022-09-06T11:06:09.494Z,6.47
2022-09-06T11:08:46.645Z,7.10
2022-09-06T11:11:17.952Z,7.50
2022-09-06T11:13:45.698Z,7.22
2022-09-06T11:16:16.905Z,6.80
2022-09-06T11:18:47.748Z,6.50
2022-09-06T11:21:30.592Z,6.15
2022-09-06T11:24:01.812Z,5.97
2022-09-06T11:26:34.416Z,6.20
2022-09-06T11:29:03.840Z,6.25
2022-09-06T11:34:21.703Z,5.97
2022-09-06T11:36:51.918Z,6.13
2022-09-06T11:42:39.773Z,6.68
2022-09-06T11:45:21.377Z,6.70
2022-09-06T11:47:49.598Z,5.85
2022-09-06T11:50:24.716Z,6.47
2022-09-06T11:52:59.749Z,6.82
2022-09-06T11:55:32.956Z,6.10
2022-09-06T11:58:01.240Z,6.35
2022-09-06T12:00:29.332Z,6.30
2022-09-06T12:06:08.316Z,5.15
2022-09-06T12:08:37.136Z,5.60
2022-09-06T12:11:06.656Z,5.43
2022-09-06T12:13:35.407Z,6.35
2022-09-06T12:16:03.018Z,6.70
2022-09-06T12:18:49.202Z,6.45
2022-09-06T12:21:31.495Z,7.70
2022-09-06T12:24:00.585Z,6.43
2022-09-06T12:26:42.866Z,6.40
2022-09-06T12:29:11.477Z,5.75
2022-09-06T12:31:39.939Z,5.78
2022-09-06T12:34:09.707Z,4.88
2022-09-06T12:36:37.284Z,4.20
2022-09-06T12:39:09.974Z,3.70
2022-09-06T12:41:43.143Z,4.80
2022-09-06T12:44:11.772Z,4.82
2022-09-06T12:46:39.969Z,4.82
2022-09-06T12:49:08.819Z,5.13
2022-09-06T12:51:37.174Z,6.18
2022-09-06T12:54:07.416Z,6.03
2022-09-06T12:56:35.098Z,6.60
2022-09-06T12:59:14.073Z,6.50
2022-09-06T13:01:42.694Z,6.50
2022-09-06T13:04:12.844Z,5.47
2022-09-06T13:06:42.608Z,5.78
2022-09-06T13:09:12.988Z,5.45
2022-09-06T13:11:42.014Z,4.47
2022-09-06T13:14:14.258Z,4.82
2022-09-06T13:16:44.425Z,5.20
2022-09-06T13:19:12.544Z,4.30
2022-09-06T13:21:40.991Z,4.95
2022-09-06T13:24:20.661Z,4.53
2022-09-06T13:26:48.303Z,4.13
2022-09-06T13:29:26.298Z,3.40
2022-09-06T13:31:54.621Z,4.07
2022-09-06T13:34:23.174Z,3.20
2022-09-06T13:36:51.002Z,3.20
2022-09-06T13:39:32.525Z,3.67
2022-09-06T13:42:04.185Z,3.90
2022-09-06T13:44:32.804Z,3.10
2022-09-06T13:47:00.207Z,2.20
2022-09-06T13:49:28.280Z,2.15
2022-09-06T13:51:56.480Z,2.38
2022-09-06T13:54:23.880Z,2.60
2022-09-06T13:56:52.624Z,2.38
2022-09-06T13:59:20.264Z,2.00
2022-09-06T14:01:48.952Z,1.83
2022-09-06T14:04:19.566Z,1.80
2022-09-06T14:06:47.030Z,1.93
2022-09-06T14:09:14.477Z,1.73
2022-09-06T14:11:47.522Z,1.55
2022-09-06T14:14:17.647Z,1.70
2022-09-06T14:16:45.159Z,1.80
2022-09-06T14:19:13.091Z,1.58
2022-09-06T14:21:41.065Z,1.60
2022-09-06T14:24:08.497Z,1.60
2022-09-06T14:26:36.916Z,1.60
2022-09-06T14:29:04.564Z,2.05
2022-09-06T14:31:33.464Z,1.80
2022-09-06T14:34:01.871Z,1.80
2022-09-06T14:36:31.454Z,2.63
2022-09-06T14:38:59.640Z,2.20
2022-09-06T14:41:27.357Z,2.63
2022-09-06T14:43:55.597Z,2.75
2022-09-06T14:46:24.036Z,2.90
2022-09-06T14:48:58.122Z,2.80
2022-09-06T14:51:25.629Z,2.38
2022-09-06T14:53:54.164Z,2.30
2022-09-06T14:56:21.914Z,2.13
2022-09-06T14:58:49.329Z,2.10
2022-09-06T15:01:20.247Z,2.38
2022-09-06T15:03:48.516Z,2.33
2022-09-06T15:06:17.315Z,1.90
2022-09-06T15:08:44.771Z,2.40
2022-09-06T15:11:12.579Z,2.50
2022-09-06T15:13:40.542Z,2.35
2022-09-06T15:16:08.881Z,2.33
2022-09-06T15:18:36.483Z,2.50
2022-09-06T15:21:10.734Z,2.50
2022-09-06T15:23:39.973Z,2.72
2022-09-06T15:26:08.151Z,2.90
2022-09-06T15:28:35.730Z,2.53
2022-09-06T15:31:03.289Z,2.78
2022-09-06T15:33:31.171Z,2.78
2022-09-06T15:36:00.479Z,3.10
2022-09-06T15:38:27.893Z,2.47
2022-09-06T15:41:08.062Z,4.93
2022-09-06T15:43:36.197Z,2.50
2022-09-06T15:46:04.306Z,2.50
2022-09-06T15:48:39.911Z,2.20
2022-09-06T15:51:07.361Z,1.80
2022-09-06T15:53:34.844Z,1.58
2022-09-06T15:56:02.963Z,1.30
2022-09-06T15:58:31.809Z,1.50
2022-09-06T16:01:06.846Z,1.42
2022-09-06T16:03:36.884Z,1.40
2022-09-06T16:08:58.322Z,1.53
2022-09-06T16:11:26.058Z,1.60
2022-09-06T16:13:54.867Z,1.48
2022-09-06T16:16:22.729Z,1.50
2022-09-06T16:18:52.072Z,1.40
2022-09-06T16:21:21.557Z,1.50
2022-09-06T16:23:49.554Z,1.63
2022-09-06T16:26:21.274Z,1.63
2022-09-06T16:28:49.548Z,1.50
2022-09-06T16:31:19.277Z,1.33
2022-09-06T16:33:48.682Z,1.30
2022-09-06T16:36:16.149Z,1.60
2022-09-06T16:38:43.667Z,1.17
2022-09-06T16:41:12.944Z,1.30
2022-09-06T16:43:40.353Z,1.13
2022-09-06T16:46:07.852Z,1.52
2022-09-06T16:48:36.662Z,1.42
2022-09-06T16:51:14.126Z,1.60
2022-09-06T16:53:42.265Z,1.80
2022-09-06T16:56:10.537Z,1.30
2022-09-06T16:58:39.100Z,1.50
2022-09-06T17:01:07.250Z,1.60
2022-09-06T17:03:37.039Z,1.70
2022-09-06T17:06:04.755Z,1.60
2022-09-06T17:08:33.163Z,1.63
2022-09-06T17:11:01.619Z,1.33
2022-09-06T17:13:29.595Z,1.38
2022-09-06T17:16:15.798Z,1.35
2022-09-06T17:18:45.939Z,1.70
2022-09-06T17:21:13.346Z,1.50
2022-09-06T17:23:41.087Z,1.55
2022-09-06T17:26:08.710Z,1.60
2022-09-06T17:28:36.669Z,1.58
2022-09-06T17:31:05.250Z,1.40
2022-09-06T17:33:33.017Z,1.30
2022-09-06T17:36:07.803Z,1.17
2022-09-06T17:38:35.445Z,1.40
2022-09-06T17:41:03.092Z,1.48
2022-09-06T17:43:30.491Z,1.40
2022-09-06T17:45:57.924Z,1.27
2022-09-06T17:48:27.875Z,1.27
2022-09-06T17:50:55.737Z,1.45
2022-09-06T17:53:24.600Z,1.30
2022-09-06T17:55:52.628Z,1.40
2022-09-06T17:58:20.199Z,1.55
2022-09-06T18:00:47.648Z,1.50
2022-09-06T18:03:15.010Z,1.60
2022-09-06T18:05:42.922Z,1.30
2022-09-06T18:08:10.980Z,1.27
2022-09-06T18:10:39.890Z,1.60
2022-09-06T18:13:08.063Z,1.67
2022-09-06T18:15:39.917Z,1.60
2022-09-06T18:18:07.423Z,1.30
2022-09-06T18:20:34.801Z,1.50
2022-09-06T18:23:02.429Z,1.60
2022-09-06T18:25:29.845Z,1.52
2022-09-06T18:27:58.607Z,1.40
2022-09-06T18:30:26.217Z,1.40
2022-09-06T18:32:53.681Z,1.50
2022-09-06T18:35:21.056Z,1.60
2022-09-06T18:37:48.431Z,1.50
2022-09-06T18:40:15.887Z,1.75
2022-09-06T18:42:44.168Z,1.60
2022-09-06T18:45:13.448Z,1.73
2022-09-06T18:47:40.839Z,1.80
2022-09-06T18:50:09.742Z,1.80
2022-09-06T18:52:38.368Z,2.05
2022-09-06T18:55:06.176Z,2.00
2022-09-06T18:57:33.592Z,1.90
2022-09-06T19:00:00.992Z,2.05
2022-09-06T19:02:29.793Z,1.95
2022-09-06T19:04:59.153Z,2.35
2022-09-06T19:07:29.475Z,1.83
2022-09-06T19:09:57.674Z,2.17
2022-09-06T19:12:25.227Z,2.05
2022-09-06T19:14:52.693Z,1.73
2022-09-06T19:17:20.143Z,2.15
2022-09-06T19:19:48.892Z,2.08
2022-09-06T19:22:17.264Z,2.33
2022-09-06T19:24:44.831Z,2.00
2022-09-06T19:27:12.773Z,2.13
2022-09-06T19:29:40.239Z,1.90
2022-09-06T19:32:08.217Z,2.00
2022-09-06T19:34:35.891Z,2.05
2022-09-06T19:37:04.658Z,2.30
2022-09-06T19:39:36.815Z,2.20
2022-09-06T19:42:04.863Z,2.10
2022-09-06T19:44:32.530Z,2.10
2022-09-06T19:47:00.482Z,2.53
2022-09-06T19:49:28.962Z,3.10
2022-09-06T19:51:56.396Z,2.35
2022-09-06T19:54:25.282Z,3.00
2022-09-06T19:56:52.716Z,2.67
2022-09-06T19:59:20.114Z,3.13
2022-09-06T20:01:47.810Z,3.28
2022-09-06T20:04:15.879Z,3.15
2022-09-06T20:06:43.507Z,3.22
2022-09-06T20:09:11.621Z,3.28
2022-09-06T20:11:41.225Z,3.50
2022-09-06T20:14:08.919Z,3.30
2022-09-06T20:16:41.159Z,3.58
2022-09-06T20:19:09.419Z,4.80
2022-09-06T20:21:36.777Z,4.53
2022-09-06T20:24:04.237Z,3.30
2022-09-06T20:26:31.748Z,3.50
2022-09-06T20:29:02.039Z,2.90
2022-09-06T20:31:30.596Z,2.38
2022-09-06T20:33:59.497Z,2.60
2022-09-06T20:36:27.034Z,2.55
2022-09-06T20:38:54.444Z,2.42
2022-09-06T20:41:23.461Z,2.50
2022-09-06T20:43:51.783Z,2.50
2022-09-06T20:46:21.636Z,2.80
2022-09-06T20:48:49.589Z,2.70
2022-09-06T20:51:19.107Z,2.35
2022-09-06T20:53:47.884Z,2.03
2022-09-06T20:56:16.237Z,1.80
2022-09-06T20:58:43.836Z,1.65
2022-09-06T21:01:12.094Z,1.80
2022-09-06T21:03:41.593Z,1.55
2022-09-06T21:06:10.009Z,1.65
2022-09-06T21:08:42.364Z,1.87
2022-09-06T21:11:10.762Z,1.50
2022-09-06T21:13:38.441Z,1.50
2022-09-06T21:16:06.493Z,1.60
2022-09-06T21:18:34.387Z,1.80
2022-09-06T21:21:03.843Z,1.67
2022-09-06T21:23:32.843Z,1.50
2022-09-06T21:26:01.789Z,1.23
2022-09-06T21:28:29.735Z,1.53
2022-09-06T21:31:01.006Z,1.60
2022-09-06T21:33:28.740Z,1.50
2022-09-06T21:36:00.315Z,1.60
2022-09-06T21:38:29.795Z,1.50
2022-09-06T21:40:57.447Z,1.45
2022-09-06T21:43:24.885Z,1.55
2022-09-06T21:45:52.277Z,1.40
2022-09-06T21:48:19.713Z,1.50
2022-09-06T21:50:47.781Z,1.37
2022-09-06T21:53:15.644Z,1.30
2022-09-06T21:55:45.045Z,1.20
2022-09-06T21:58:13.476Z,1.50
2022-09-06T22:00:41.104Z,1.80
2022-09-06T22:03:08.785Z,1.90
2022-09-06T22:05:36.159Z,2.40
2022-09-06T22:08:03.763Z,2.20
2022-09-06T22:10:31.133Z,2.30
2022-09-06T22:12:59.892Z,2.63
2022-09-06T22:15:27.313Z,2.55
2022-09-06T22:17:54.703Z,2.10
2022-09-06T22:20:22.068Z,2.35
2022-09-06T22:22:50.009Z,2.03
2022-09-06T22:25:17.439Z,1.90
2022-09-06T22:27:44.838Z,2.22
2022-09-06T22:30:14.259Z,2.40
2022-09-06T22:32:41.644Z,3.05
2022-09-06T22:35:09.916Z,4.32
2022-09-06T22:37:37.297Z,4.10
2022-09-06T22:40:04.976Z,4.40
2022-09-06T22:42:32.812Z,4.03
2022-09-06T22:45:00.231Z,4.53
2022-09-06T22:47:29.232Z,4.70
2022-09-06T22:49:56.643Z,4.40
2022-09-06T22:52:24.033Z,4.40
2022-09-06T22:54:51.411Z,4.80
2022-09-06T22:57:18.855Z,4.45
2022-09-06T22:59:46.239Z,5.10
2022-09-06T23:02:13.685Z,4.57
2022-09-06T23:04:42.441Z,5.20
2022-09-06T23:07:09.957Z,5.32
2022-09-06T23:09:37.312Z,5.30
2022-09-06T23:12:05.056Z,5.82
2022-09-06T23:14:32.430Z,5.35
2022-09-06T23:16:59.811Z,4.75
2022-09-06T23:19:27.205Z,5.50
2022-09-06T23:21:55.917Z,4.82
2022-09-06T23:24:23.298Z,4.85
2022-09-06T23:26:52.649Z,4.47
2022-09-06T23:29:20.113Z,5.05
2022-09-06T23:31:47.643Z,5.25
2022-09-06T23:34:15.086Z,5.15
2022-09-06T23:36:42.667Z,4.67
2022-09-06T23:39:11.622Z,4.93
2022-09-06T23:41:39.008Z,5.10
2022-09-06T23:44:06.430Z,5.00
2022-09-06T23:46:33.908Z,4.43
2022-09-06T23:49:01.339Z,4.78
2022-09-06T23:51:28.757Z,5.10
2022-09-06T23:53:56.193Z,5.00
2022-09-06T23:56:24.945Z,4.78
2022-09-06T23:58:52.350Z,5.30
